Time;durP1;ratioP1;P1;durP2;ratioP2;P2;SDS_P1;SDS_P2;PMS_P1;PMS_P2;Temp;Humidity;BMP_temperature;BMP_pressure;BME280_temperature;BME280_humidity;BME280_pressure;Samples;Min_cycle;Max_cycle;Signal;HPM_P1;HPM_P2
2021/03/07 00:02:01;;;;;;;11.30;9.10;;;0.30;99.90;;;;;;4968876;28;20204;-78
2021/03/07 00:04:28;;;;;;;12.07;8.63;;;0.30;99.90;;;;;;4959882;28;20221;-75
2021/03/07 00:06:54;;;;;;;12.97;9.50;;;0.30;99.90;;;;;;4946701;29;20553;-81
2021/03/07 00:09:20;;;;;;;11.83;8.77;;;0.40;99.90;;;;;;4950288;28;20854;-75
2021/03/07 00:11:47;;;;;;;11.30;8.83;;;0.40;99.90;;;;;;4966258;28;20640;-77
2021/03/07 00:14:13;;;;;;;10.70;8.87;;;0.40;99.90;;;;;;4966550;28;20232;-77
2021/03/07 00:16:39;;;;;;;11.23;8.37;;;0.50;99.90;;;;;;4966214;28;20211;-79
2021/03/07 00:19:06;;;;;;;12.97;8.57;;;0.50;99.90;;;;;;4966168;28;20201;-75
2021/03/07 00:21:33;;;;;;;11.10;7.93;;;0.50;99.90;;;;;;4964975;28;20204;-78
2021/03/07 00:23:59;;;;;;;13.90;9.23;;;0.50;99.90;;;;;;4966539;28;20672;-77
2021/03/07 00:26:26;;;;;;;12.97;8.90;;;0.60;99.90;;;;;;4965595;28;20215;-76
2021/03/07 00:28:52;;;;;;;11.60;7.97;;;0.60;99.90;;;;;;4955810;28;20232;-77
2021/03/07 00:31:18;;;;;;;15.03;9.13;;;0.70;99.90;;;;;;4947422;29;20208;-76
2021/03/07 00:33:44;;;;;;;16.07;9.17;;;0.70;99.90;;;;;;4947570;28;20225;-75
2021/03/07 00:36:11;;;;;;;10.03;8.10;;;0.70;99.90;;;;;;4947116;28;20261;-76
2021/03/07 00:38:38;;;;;;;14.63;8.63;;;0.70;99.90;;;;;;4947658;28;20325;-81
2021/03/07 00:41:04;;;;;;;10.73;7.77;;;0.80;99.90;;;;;;4947866;29;20217;-78
2021/03/07 00:43:31;;;;;;;10.40;7.40;;;0.80;99.90;;;;;;4945530;29;20197;-77
2021/03/07 00:45:57;;;;;;;10.17;7.00;;;0.90;99.90;;;;;;4960788;28;20209;-76
2021/03/07 00:48:23;;;;;;;11.07;7.17;;;0.90;99.90;;;;;;4973570;28;20240;-79
2021/03/07 00:50:50;;;;;;;9.07;6.23;;;1.00;99.90;;;;;;4974697;28;20262;-77
2021/03/07 00:53:16;;;;;;;7.43;6.50;;;1.00;99.90;;;;;;4969703;28;20215;-77
2021/03/07 00:55:43;;;;;;;8.93;6.47;;;1.00;99.90;;;;;;4986916;28;20651;-77
2021/03/07 00:58:09;;;;;;;8.77;6.20;;;1.10;99.90;;;;;;4986796;28;20199;-79
2021/03/07 01:00:36;;;;;;;9.00;6.20;;;1.10;99.90;;;;;;4976530;28;20216;-78
2021/03/07 01:03:02;;;;;;;6.27;5.63;;;1.10;99.90;;;;;;4968081;28;20236;-81
2021/03/07 01:05:30;;;;;;;6.70;5.67;;;1.10;99.90;;;;;;4977248;28;20208;-79
2021/03/07 01:07:57;;;;;;;10.63;6.43;;;1.10;99.90;;;;;;4987838;28;20207;-79
2021/03/07 01:10:28;;;;;;;7.90;5.87;;;1.20;99.90;;;;;;4989891;28;20219;-83
2021/03/07 01:12:55;;;;;;;7.67;5.67;;;1.20;99.90;;;;;;4989671;28;20639;-80
2021/03/07 01:15:24;;;;;;;9.80;6.23;;;1.20;99.90;;;;;;4988390;28;20208;-82
2021/03/07 01:17:50;;;;;;;7.97;5.63;;;1.20;99.90;;;;;;4985223;28;20200;-83
2021/03/07 01:20:18;;;;;;;7.93;5.80;;;1.30;99.90;;;;;;4985148;28;20208;-82
2021/03/07 01:22:45;;;;;;;6.30;5.37;;;1.30;99.90;;;;;;4983192;28;20310;-83
2021/03/07 01:25:12;;;;;;;5.70;4.77;;;1.30;99.90;;;;;;4968802;28;20208;-81
2021/03/07 01:27:38;;;;;;;7.57;5.43;;;1.30;99.90;;;;;;4970817;28;20211;-78
2021/03/07 01:30:08;;;;;;;8.90;6.23;;;1.30;99.90;;;;;;4969864;28;20205;-79
2021/03/07 01:32:36;;;;;;;7.40;5.87;;;1.30;99.90;;;;;;4970243;28;20231;-81
2021/03/07 01:35:03;;;;;;;6.47;5.17;;;1.30;99.90;;;;;;4971594;28;20559;-81
2021/03/07 01:37:29;;;;;;;8.13;5.90;;;1.30;99.90;;;;;;4970857;28;20609;-83
2021/03/07 01:39:56;;;;;;;8.67;5.13;;;1.40;99.90;;;;;;4973793;28;20289;-79
2021/03/07 01:42:22;;;;;;;6.90;5.43;;;1.40;99.90;;;;;;4987271;28;20208;-78
2021/03/07 01:44:49;;;;;;;7.47;5.50;;;1.40;99.90;;;;;;4987628;28;20204;-79
2021/03/07 01:47:26;;;;;;;6.77;5.00;;;1.40;99.90;;;;;;4987419;28;20203;-78
2021/03/07 01:49:52;;;;;;;6.37;5.20;;;1.40;99.90;;;;;;4967324;28;20208;-77
2021/03/07 01:52:18;;;;;;;6.13;5.00;;;1.40;99.90;;;;;;4950275;28;20204;-78
2021/03/07 01:54:45;;;;;;;5.60;4.73;;;1.40;99.90;;;;;;4968056;28;20240;-76
2021/03/07 01:57:13;;;;;;;5.83;4.33;;;1.40;99.90;;;;;;4965773;28;20211;-76
2021/03/07 01:59:42;;;;;;;5.20;4.23;;;1.50;99.90;;;;;;4965104;28;20205;-77
2021/03/07 02:02:09;;;;;;;5.43;4.43;;;1.50;99.90;;;;;;4965671;28;20212;-77
2021/03/07 02:04:36;;;;;;;7.50;4.60;;;1.50;99.90;;;;;;4963384;28;20228;-78
2021/03/07 02:07:03;;;;;;;5.83;4.83;;;1.50;99.90;;;;;;4965804;28;20200;-77
2021/03/07 02:09:29;;;;;;;5.73;4.10;;;1.50;99.90;;;;;;4977583;28;20242;-77
2021/03/07 02:11:56;;;;;;;5.27;4.37;;;1.60;99.90;;;;;;4985154;28;20204;-78
2021/03/07 02:14:26;;;;;;;5.87;4.63;;;1.60;99.90;;;;;;4983004;28;20663;-77
2021/03/07 02:16:53;;;;;;;4.93;4.17;;;1.60;99.90;;;;;;4985384;28;20207;-76
2021/03/07 02:19:25;;;;;;;6.70;4.37;;;1.60;99.90;;;;;;4984485;28;20207;-76
2021/03/07 02:21:58;;;;;;;5.37;4.00;;;1.70;99.90;;;;;;4985144;28;20215;-77
2021/03/07 02:24:25;;;;;;;7.77;4.17;;;1.70;99.90;;;;;;4968754;28;20216;-84
2021/03/07 02:26:52;;;;;;;4.60;4.10;;;1.70;99.90;;;;;;4965762;28;20784;-77
2021/03/07 02:29:21;;;;;;;6.50;3.40;;;1.70;99.90;;;;;;4967300;28;20205;-80
2021/03/07 02:31:50;;;;;;;4.77;3.80;;;1.70;99.90;;;;;;4966922;28;20212;-80
2021/03/07 02:34:20;;;;;;;8.00;3.67;;;1.70;99.90;;;;;;4966553;28;20283;-83
2021/03/07 02:36:51;;;;;;;6.47;3.17;;;1.80;99.90;;;;;;4974150;28;20215;-75
2021/03/07 02:39:19;;;;;;;6.83;3.37;;;1.80;99.90;;;;;;4982232;28;20203;-76
2021/03/07 02:41:47;;;;;;;7.03;4.03;;;1.80;99.90;;;;;;4963932;28;20196;-77
2021/03/07 02:44:18;;;;;;;5.63;3.83;;;1.80;99.90;;;;;;4964008;28;20884;-83
2021/03/07 02:46:45;;;;;;;5.03;3.70;;;1.90;99.90;;;;;;4964451;28;20216;-77
2021/03/07 02:49:16;;;;;;;4.10;3.50;;;1.90;99.90;;;;;;4966660;28;20242;-76
2021/03/07 02:51:44;;;;;;;5.30;3.50;;;1.90;99.90;;;;;;4983313;28;20243;-77
2021/03/07 02:54:12;;;;;;;4.43;3.40;;;2.00;99.90;;;;;;4975405;28;20240;-77
2021/03/07 02:56:40;;;;;;;5.57;3.33;;;2.00;99.90;;;;;;4963400;28;20636;-77
2021/03/07 02:59:11;;;;;;;4.33;3.30;;;2.00;99.90;;;;;;4964068;28;20998;-75
2021/03/07 03:01:38;;;;;;;4.20;3.20;;;2.00;99.90;;;;;;4967593;28;20197;-81
2021/03/07 03:04:06;;;;;;;4.43;3.37;;;2.00;99.90;;;;;;4970100;28;20233;-81
2021/03/07 03:06:36;;;;;;;5.43;3.70;;;2.00;99.90;;;;;;4969488;28;20197;-83
2021/03/07 03:09:05;;;;;;;4.60;3.50;;;2.00;99.90;;;;;;4990937;28;20208;-82
2021/03/07 03:11:34;;;;;;;8.90;3.83;;;2.00;99.90;;;;;;4992432;28;20218;-81
2021/03/07 03:14:02;;;;;;;4.60;3.30;;;2.10;99.90;;;;;;4991044;28;20533;-82
2021/03/07 03:16:32;;;;;;;4.90;3.70;;;2.10;99.90;;;;;;4991143;28;20384;-82
2021/03/07 03:18:59;;;;;;;5.07;3.40;;;2.10;99.90;;;;;;4989420;28;20924;-77
2021/03/07 03:21:26;;;;;;;3.80;3.13;;;2.10;99.90;;;;;;4986944;28;20219;-78
2021/03/07 03:23:53;;;;;;;5.40;3.60;;;2.10;99.90;;;;;;4987751;28;20199;-77
2021/03/07 03:26:22;;;;;;;5.77;2.83;;;2.10;99.90;;;;;;4986409;28;20195;-74
2021/03/07 03:28:51;;;;;;;5.53;2.97;;;2.10;99.90;;;;;;4977076;28;20940;-75
2021/03/07 03:31:17;;;;;;;6.53;3.87;;;2.10;99.90;;;;;;4966027;28;20624;-76
2021/03/07 03:33:44;;;;;;;5.33;3.63;;;2.10;99.90;;;;;;4965825;28;20724;-75
2021/03/07 03:36:11;;;;;;;5.73;3.47;;;2.10;99.90;;;;;;4966942;28;20203;-74
2021/03/07 03:38:40;;;;;;;3.67;2.90;;;2.10;99.90;;;;;;4965699;28;20200;-75
2021/03/07 03:41:09;;;;;;;5.30;3.33;;;2.10;99.90;;;;;;4967576;28;20209;-75
2021/03/07 03:43:36;;;;;;;5.13;3.80;;;2.20;99.90;;;;;;4966297;28;20528;-76
2021/03/07 03:46:05;;;;;;;7.73;4.13;;;2.20;99.90;;;;;;4985200;28;20233;-78
2021/03/07 03:48:37;;;;;;;5.60;3.67;;;2.20;99.90;;;;;;4985163;28;20655;-75
2021/03/07 03:51:08;;;;;;;3.73;3.33;;;2.20;99.90;;;;;;4967218;28;20913;-75
2021/03/07 03:53:35;;;;;;;4.40;3.33;;;2.20;99.90;;;;;;4965395;28;20231;-77
2021/03/07 03:56:02;;;;;;;6.90;4.03;;;2.20;99.90;;;;;;4966744;28;20201;-75
2021/03/07 03:58:33;;;;;;;4.50;3.40;;;2.20;99.90;;;;;;4976146;28;20237;-75
2021/03/07 04:01:01;;;;;;;4.90;3.50;;;2.20;99.90;;;;;;4986321;28;20250;-77
2021/03/07 04:03:27;;;;;;;8.47;4.27;;;2.20;99.90;;;;;;4988522;28;20220;-77
2021/03/07 04:05:56;;;;;;;6.33;4.37;;;2.20;99.90;;;;;;4986951;28;20192;-78
2021/03/07 04:08:23;;;;;;;6.70;3.60;;;2.20;99.90;;;;;;4970909;28;20216;-77
2021/03/07 04:10:52;;;;;;;4.97;4.00;;;2.30;99.90;;;;;;4968291;28;20635;-75
2021/03/07 04:13:20;;;;;;;5.57;4.10;;;2.30;99.90;;;;;;4968815;28;20232;-79
2021/03/07 04:15:47;;;;;;;4.77;3.87;;;2.30;99.90;;;;;;4966355;28;20497;-78
2021/03/07 04:18:15;;;;;;;4.83;3.80;;;2.30;99.90;;;;;;4969172;28;20208;-79
2021/03/07 04:20:42;;;;;;;4.77;3.50;;;2.30;99.90;;;;;;4967769;28;20205;-76
2021/03/07 04:23:08;;;;;;;6.20;4.60;;;2.30;99.90;;;;;;4969044;28;20232;-76
2021/03/07 04:25:36;;;;;;;7.07;4.27;;;2.30;99.90;;;;;;4969571;28;20213;-76
2021/03/07 04:28:04;;;;;;;6.90;4.30;;;2.30;99.90;;;;;;4968416;28;20923;-77
2021/03/07 04:30:30;;;;;;;4.33;3.93;;;2.30;99.90;;;;;;4984030;28;20215;-76
2021/03/07 04:32:57;;;;;;;6.20;3.80;;;2.30;99.90;;;;;;4987769;28;20207;-82
2021/03/07 04:35:24;;;;;;;4.83;4.10;;;2.40;99.90;;;;;;4988914;28;20215;-81
2021/03/07 04:37:51;;;;;;;6.23;4.43;;;2.40;99.90;;;;;;4989646;28;20204;-81
2021/03/07 04:40:18;;;;;;;6.90;5.27;;;2.40;99.90;;;;;;4984750;28;20224;-76
2021/03/07 04:42:46;;;;;;;6.60;4.80;;;2.40;99.90;;;;;;4982986;28;20203;-77
2021/03/07 04:45:14;;;;;;;5.63;4.63;;;2.50;99.90;;;;;;4967218;28;20802;-77
2021/03/07 04:47:42;;;;;;;7.17;4.03;;;2.50;99.90;;;;;;4965358;28;20337;-78
2021/03/07 04:50:09;;;;;;;5.80;4.60;;;2.50;99.90;;;;;;4965732;28;20567;-75
2021/03/07 04:52:36;;;;;;;6.40;4.90;;;2.50;99.90;;;;;;4965849;28;20235;-75
2021/03/07 04:55:03;;;;;;;6.27;4.40;;;2.50;99.90;;;;;;4977908;28;20272;-76
2021/03/07 04:57:29;;;;;;;5.30;4.80;;;2.60;99.90;;;;;;4983380;28;20203;-75
2021/03/07 04:59:56;;;;;;;6.17;4.70;;;2.60;99.90;;;;;;4985146;28;20215;-75
2021/03/07 05:02:22;;;;;;;5.30;3.77;;;2.70;99.90;;;;;;4986407;28;20222;-78
2021/03/07 05:04:49;;;;;;;7.00;4.20;;;2.70;99.90;;;;;;4987951;28;20232;-80
2021/03/07 05:07:15;;;;;;;4.70;4.03;;;2.80;99.90;;;;;;4990806;28;20261;-83
2021/03/07 05:09:41;;;;;;;5.57;3.90;;;2.80;99.90;;;;;;4990983;28;20346;-83
2021/03/07 05:12:08;;;;;;;5.57;4.20;;;2.80;99.90;;;;;;4990911;28;20682;-81
2021/03/07 05:14:34;;;;;;;4.53;3.93;;;2.80;99.90;;;;;;4990389;28;20219;-77
2021/03/07 05:17:01;;;;;;;6.17;3.80;;;2.80;99.90;;;;;;4979148;28;20276;-82
2021/03/07 05:19:27;;;;;;;4.67;3.90;;;2.90;99.90;;;;;;4969549;28;20192;-82
2021/03/07 05:21:54;;;;;;;5.27;3.80;;;2.90;99.90;;;;;;4971001;28;20204;-82
2021/03/07 05:24:20;;;;;;;4.80;4.10;;;2.90;99.90;;;;;;4970983;28;20204;-81
2021/03/07 05:26:46;;;;;;;5.40;3.83;;;2.90;99.90;;;;;;4971675;28;20196;-82
2021/03/07 05:29:13;;;;;;;5.93;4.40;;;2.90;99.90;;;;;;4970953;28;20381;-78
2021/03/07 05:31:39;;;;;;;5.80;3.43;;;2.90;99.90;;;;;;4968655;28;20216;-82
2021/03/07 05:34:06;;;;;;;3.70;3.40;;;2.90;99.90;;;;;;4972199;28;20219;-82
2021/03/07 05:36:33;;;;;;;5.37;3.50;;;2.90;99.90;;;;;;4986951;28;20208;-80
2021/03/07 05:38:59;;;;;;;4.03;3.27;;;2.90;99.90;;;;;;4987053;28;20628;-85
2021/03/07 05:41:25;;;;;;;5.00;3.93;;;2.90;99.90;;;;;;4989723;28;21053;-80
2021/03/07 05:43:52;;;;;;;5.47;4.13;;;2.80;99.90;;;;;;4989713;28;20580;-82
2021/03/07 05:46:18;;;;;;;3.93;3.47;;;2.90;99.90;;;;;;4991000;28;20254;-82
2021/03/07 05:48:44;;;;;;;4.27;3.33;;;2.90;99.90;;;;;;4989917;28;20733;-82
2021/03/07 05:51:14;;;;;;;5.87;3.83;;;2.90;99.90;;;;;;4990779;28;20200;-82
2021/03/07 05:53:41;;;;;;;4.60;3.70;;;2.90;99.90;;;;;;4990055;28;20625;-82
2021/03/07 05:56:10;;;;;;;3.67;3.37;;;2.90;99.90;;;;;;4986288;28;20208;-77
2021/03/07 05:58:37;;;;;;;4.30;3.77;;;2.90;99.90;;;;;;4985365;28;20274;-77
2021/03/07 06:01:04;;;;;;;4.90;3.53;;;2.90;99.90;;;;;;4985164;28;20338;-80
2021/03/07 06:03:31;;;;;;;4.03;3.30;;;2.90;99.90;;;;;;4985756;28;20222;-78
2021/03/07 06:05:57;;;;;;;4.70;3.20;;;2.90;99.90;;;;;;4987318;28;20196;-82
2021/03/07 06:08:24;;;;;;;7.10;3.90;;;2.90;99.90;;;;;;4989978;28;20298;-78
2021/03/07 06:10:51;;;;;;;5.07;3.30;;;2.90;99.90;;;;;;4977173;28;20283;-79
2021/03/07 06:13:17;;;;;;;4.13;3.13;;;2.90;99.90;;;;;;4971100;28;20231;-80
2021/03/07 06:15:45;;;;;;;3.57;3.03;;;3.00;99.90;;;;;;4972875;28;20209;-80
2021/03/07 06:18:13;;;;;;;3.20;2.80;;;3.00;99.90;;;;;;4990304;28;20584;-78
2021/03/07 06:20:39;;;;;;;3.27;2.30;;;3.00;99.90;;;;;;4984076;28;21159;-76
2021/03/07 06:23:06;;;;;;;4.27;2.60;;;3.00;99.90;;;;;;4986560;28;20560;-80
2021/03/07 06:25:43;;;;;;;3.47;2.27;;;3.10;99.90;;;;;;4983684;28;20212;-76
2021/03/07 06:28:20;;;;;;;4.40;2.20;;;3.10;99.90;;;;;;4965611;28;20196;-77
2021/03/07 06:30:46;;;;;;;2.93;1.80;;;3.10;99.90;;;;;;4964994;28;20235;-75
2021/03/07 06:33:28;;;;;;;2.63;1.47;;;3.20;99.90;;;;;;4965937;28;20267;-75
2021/03/07 06:36:15;;;;;;;1.47;1.37;;;3.20;99.90;;;;;;4981643;28;20302;-76
2021/03/07 06:38:46;;;;;;;3.83;1.97;;;3.20;99.90;;;;;;4983388;28;20604;-77
2021/03/07 06:41:18;;;;;;;2.07;1.57;;;3.20;99.90;;;;;;4976624;28;20211;-77
2021/03/07 06:43:44;;;;;;;2.23;1.40;;;3.30;99.90;;;;;;4982458;28;20212;-76
2021/03/07 06:46:28;;;;;;;1.70;1.40;;;3.30;99.90;;;;;;4984095;28;20262;-78
2021/03/07 06:48:55;;;;;;;2.53;1.33;;;3.30;99.90;;;;;;4984497;28;20950;-77
2021/03/07 06:51:39;;;;;;;1.30;1.20;;;3.30;99.90;;;;;;4985067;28;20666;-75
2021/03/07 06:54:25;;;;;;;2.93;1.30;;;3.40;99.90;;;;;;4983037;28;20678;-77
2021/03/07 06:56:53;;;;;;;2.83;1.30;;;3.40;99.90;;;;;;4983622;28;20210;-77
2021/03/07 06:59:21;;;;;;;1.30;1.17;;;3.50;99.90;;;;;;4984780;28;20211;-75
2021/03/07 07:01:48;;;;;;;1.30;1.20;;;3.50;99.90;;;;;;4983019;28;20215;-77
2021/03/07 07:04:16;;;;;;;1.90;1.30;;;3.50;99.90;;;;;;4983730;28;20216;-75
2021/03/07 07:06:44;;;;;;;0.97;0.87;;;3.50;99.90;;;;;;4984013;28;20203;-76
2021/03/07 07:09:11;;;;;;;2.90;1.30;;;3.60;99.90;;;;;;4982752;28;20200;-76
2021/03/07 07:11:46;;;;;;;2.33;1.03;;;3.60;99.90;;;;;;4983659;28;20219;-81
2021/03/07 07:14:27;;;;;;;1.93;1.00;;;3.60;99.90;;;;;;4984200;28;20227;-77
2021/03/07 07:16:54;;;;;;;2.47;1.37;;;3.70;99.90;;;;;;4986290;28;20314;-77
2021/03/07 07:19:21;;;;;;;3.70;0.90;;;3.70;99.90;;;;;;4986187;28;20196;-75
2021/03/07 07:21:48;;;;;;;1.70;1.03;;;3.80;99.90;;;;;;4985502;28;20263;-77
2021/03/07 07:24:14;;;;;;;3.33;0.83;;;3.80;99.90;;;;;;4985162;28;20270;-78
2021/03/07 07:26:40;;;;;;;1.23;0.90;;;3.80;99.90;;;;;;4985197;28;20845;-82
2021/03/07 07:29:08;;;;;;;1.73;0.90;;;3.80;99.90;;;;;;4985025;28;20211;-79
2021/03/07 07:31:38;;;;;;;1.70;0.73;;;3.90;99.90;;;;;;4983787;28;20620;-79
2021/03/07 07:34:11;;;;;;;0.93;0.80;;;3.90;99.90;;;;;;4980979;28;20228;-76
2021/03/07 07:36:45;;;;;;;2.93;0.90;;;3.90;99.90;;;;;;4963871;28;20523;-79
2021/03/07 07:39:15;;;;;;;2.23;0.80;;;3.90;99.90;;;;;;4976993;28;20617;-77
2021/03/07 07:41:42;;;;;;;1.17;0.60;;;4.00;99.90;;;;;;4984518;28;20272;-78
2021/03/07 07:44:30;;;;;;;1.83;0.93;;;4.00;99.90;;;;;;4932469;28;20959;-82
2021/03/07 07:46:59;;;;;;;1.20;0.90;;;4.00;99.90;;;;;;4972268;28;20605;-80
2021/03/07 07:49:39;;;;;;;4.57;0.90;;;4.00;99.90;;;;;;4985041;28;20586;-83
2021/03/07 07:52:35;;;;;;;0.77;0.70;;;4.20;99.90;;;;;;4983764;28;20208;-79
2021/03/07 07:55:06;;;;;;;0.70;0.70;;;4.20;99.90;;;;;;4985998;28;20212;-83
2021/03/07 07:57:47;;;;;;;1.10;0.90;;;4.20;99.90;;;;;;4987837;28;20204;-83
2021/03/07 08:00:16;;;;;;;0.67;0.67;;;4.30;99.90;;;;;;4986099;28;20211;-78
2021/03/07 08:02:57;;;;;;;0.80;0.70;;;4.40;99.90;;;;;;4982434;28;20262;-78
2021/03/07 08:05:43;;;;;;;1.00;0.70;;;4.40;99.90;;;;;;4988495;28;20253;-83
2021/03/07 08:08:12;;;;;;;1.93;0.77;;;4.40;99.90;;;;;;4986892;28;20534;-78
2021/03/07 08:10:44;;;;;;;1.23;1.00;;;4.50;99.90;;;;;;4986131;28;20208;-80
2021/03/07 08:13:12;;;;;;;0.97;0.80;;;4.50;99.90;;;;;;4989780;28;20219;-80
2021/03/07 08:15:46;;;;;;;0.97;0.80;;;4.50;99.90;;;;;;4983417;28;20197;-78
2021/03/07 08:18:17;;;;;;;1.53;0.80;;;4.60;99.90;;;;;;4967833;28;20943;-81
2021/03/07 08:21:06;;;;;;;2.13;1.00;;;4.60;99.90;;;;;;4967068;28;20201;-80
2021/03/07 08:23:58;;;;;;;2.17;0.70;;;4.70;99.90;;;;;;4982400;28;20266;-78
2021/03/07 08:26:26;;;;;;;3.00;1.10;;;4.70;99.90;;;;;;4987412;28;20199;-78
2021/03/07 08:28:52;;;;;;;1.07;0.80;;;4.80;99.90;;;;;;4976700;28;20228;-82
2021/03/07 08:31:35;;;;;;;2.00;0.90;;;4.80;99.90;;;;;;4968219;28;20264;-80
2021/03/07 08:34:24;;;;;;;2.27;0.70;;;4.90;99.90;;;;;;4967128;28;20232;-77
2021/03/07 08:36:52;;;;;;;1.97;0.77;;;4.90;99.90;;;;;;4967893;28;20197;-78
2021/03/07 08:39:19;;;;;;;1.00;0.70;;;5.00;99.90;;;;;;4986249;28;20278;-79
2021/03/07 08:42:04;;;;;;;2.40;1.10;;;5.00;99.90;;;;;;4985428;28;20219;-79
2021/03/07 08:44:32;;;;;;;0.63;0.63;;;5.00;99.90;;;;;;4973271;28;20208;-82
2021/03/07 08:46:58;;;;;;;3.13;0.90;;;5.00;99.90;;;;;;4968321;28;20201;-83
2021/03/07 08:49:28;;;;;;;1.40;0.77;;;5.00;99.90;;;;;;4968604;28;20245;-80
2021/03/07 08:52:04;;;;;;;2.03;0.90;;;5.10;99.90;;;;;;4968921;28;20916;-80
2021/03/07 08:54:32;;;;;;;1.70;0.80;;;5.10;99.90;;;;;;4967729;28;20228;-82
2021/03/07 08:57:05;;;;;;;0.80;0.80;;;5.10;99.90;;;;;;4969416;28;20906;-82
2021/03/07 08:59:34;;;;;;;1.90;1.17;;;5.10;99.90;;;;;;4965523;28;20212;-79
2021/03/07 09:02:01;;;;;;;3.70;1.20;;;5.10;99.90;;;;;;4964759;28;20239;-83
2021/03/07 09:04:34;;;;;;;1.87;0.87;;;5.10;99.90;;;;;;4965173;28;20361;-77
2021/03/07 09:07:01;;;;;;;2.97;1.00;;;5.10;99.90;;;;;;4965293;28;20613;-79
2021/03/07 09:09:27;;;;;;;3.70;2.10;;;5.10;99.90;;;;;;4965353;28;20214;-79
2021/03/07 09:11:55;;;;;;;3.83;2.83;;;5.20;99.90;;;;;;4966259;28;20208;-80
2021/03/07 09:14:31;;;;;;;5.17;2.80;;;5.20;99.90;;;;;;4966545;28;20232;-78
2021/03/07 09:16:59;;;;;;;4.30;2.83;;;5.30;99.90;;;;;;4966015;28;20220;-79
2021/03/07 09:19:31;;;;;;;5.53;3.23;;;5.30;99.90;;;;;;4966287;28;20201;-79
2021/03/07 09:22:21;;;;;;;4.23;3.13;;;5.30;99.90;;;;;;4966529;28;20219;-80
2021/03/07 09:24:50;;;;;;;4.17;3.23;;;5.30;99.90;;;;;;4966139;28;20204;-80
2021/03/07 09:27:17;;;;;;;4.33;3.47;;;5.30;99.90;;;;;;4966457;28;20205;-78
2021/03/07 09:30:12;;;;;;;6.70;4.17;;;5.30;99.90;;;;;;4965907;28;20213;-80
2021/03/07 09:32:41;;;;;;;6.50;4.07;;;5.30;99.90;;;;;;4924153;28;20209;-78
2021/03/07 09:35:23;;;;;;;6.43;4.20;;;5.30;99.90;;;;;;4968281;28;20231;-81
2021/03/07 09:37:56;;;;;;;7.33;4.27;;;5.30;99.90;;;;;;4985004;28;20278;-82
2021/03/07 09:40:23;;;;;;;6.97;4.83;;;5.30;99.90;;;;;;4988316;28;20242;-78
2021/03/07 09:42:54;;;;;;;7.43;4.80;;;5.30;99.90;;;;;;4986699;28;20216;-80
2021/03/07 09:45:21;;;;;;;9.23;6.33;;;5.30;99.90;;;;;;4985977;28;20242;-78
2021/03/07 09:47:49;;;;;;;7.10;5.87;;;5.30;99.90;;;;;;4984429;28;20210;-79
2021/03/07 09:50:16;;;;;;;8.13;6.90;;;5.40;99.90;;;;;;4966620;28;20275;-78
2021/03/07 09:52:43;;;;;;;8.50;6.67;;;5.40;99.90;;;;;;4971600;28;20208;-78
2021/03/07 09:55:12;;;;;;;8.13;6.13;;;5.40;99.90;;;;;;4970416;28;20237;-81
2021/03/07 09:57:39;;;;;;;9.53;6.47;;;5.40;99.90;;;;;;4965581;28;20200;-79
2021/03/07 10:00:06;;;;;;;7.80;6.97;;;5.30;99.90;;;;;;4965997;28;20219;-82
2021/03/07 10:02:35;;;;;;;8.70;7.00;;;5.40;99.90;;;;;;4965946;28;20204;-80
2021/03/07 10:05:11;;;;;;;13.33;8.10;;;5.50;99.90;;;;;;4965994;28;20676;-82
2021/03/07 10:07:38;;;;;;;9.37;6.93;;;5.50;99.90;;;;;;4963775;28;20212;-78
2021/03/07 10:10:10;;;;;;;8.67;6.50;;;5.50;99.90;;;;;;4974317;28;20212;-80
2021/03/07 10:12:42;;;;;;;10.67;6.90;;;5.60;99.90;;;;;;4983407;28;20203;-77
2021/03/07 10:15:10;;;;;;;10.30;6.33;;;5.60;99.90;;;;;;4984195;28;20261;-80
2021/03/07 10:17:38;;;;;;;8.63;7.07;;;5.60;99.90;;;;;;4987272;28;20215;-81
2021/03/07 10:20:08;;;;;;;12.10;8.23;;;5.60;99.90;;;;;;4986956;28;20208;-79
2021/03/07 10:22:39;;;;;;;12.17;7.37;;;5.60;99.90;;;;;;4985007;28;20221;-81
2021/03/07 10:25:06;;;;;;;12.90;7.60;;;5.60;99.90;;;;;;4975378;28;20505;-82
2021/03/07 10:27:33;;;;;;;9.20;6.47;;;5.70;99.90;;;;;;4967141;28;20208;-80
2021/03/07 10:30:01;;;;;;;8.87;6.97;;;5.80;99.90;;;;;;4967405;28;20215;-81
2021/03/07 10:32:27;;;;;;;10.27;7.03;;;5.80;99.90;;;;;;4966223;28;20205;-80
2021/03/07 10:34:54;;;;;;;10.17;8.10;;;6.00;99.90;;;;;;4967089;28;20414;-81
2021/03/07 10:37:35;;;;;;;11.17;8.57;;;6.00;99.90;;;;;;4967871;28;21006;-80
2021/03/07 10:40:02;;;;;;;12.20;9.10;;;6.20;99.90;;;;;;4965148;28;20208;-82
2021/03/07 10:42:32;;;;;;;12.53;9.07;;;6.20;99.90;;;;;;4968388;28;20230;-82
2021/03/07 10:45:17;;;;;;;9.63;8.37;;;6.20;99.90;;;;;;4983002;28;20303;-82
2021/03/07 10:47:44;;;;;;;10.87;8.53;;;6.30;99.90;;;;;;4984325;28;20888;-81
2021/03/07 10:50:12;;;;;;;12.27;8.30;;;6.30;99.90;;;;;;4986861;28;20219;-82
2021/03/07 10:52:39;;;;;;;10.60;7.83;;;6.30;99.90;;;;;;4986999;28;20211;-82
2021/03/07 10:55:13;;;;;;;13.00;8.57;;;6.30;99.90;;;;;;4986228;28;20224;-82
2021/03/07 10:57:40;;;;;;;10.20;8.57;;;6.40;99.90;;;;;;4987053;28;20214;-81
2021/03/07 11:00:07;;;;;;;13.17;8.67;;;6.30;99.90;;;;;;4986584;28;20212;-82
2021/03/07 11:02:35;;;;;;;11.37;9.17;;;6.40;99.90;;;;;;4987399;28;20590;-83
2021/03/07 11:05:01;;;;;;;13.07;9.40;;;6.40;99.90;;;;;;4986894;28;20218;-83
2021/03/07 11:07:27;;;;;;;11.77;8.87;;;6.40;99.90;;;;;;4987502;28;20254;-82
2021/03/07 11:09:54;;;;;;;12.23;9.60;;;6.40;99.90;;;;;;4979131;28;20479;-82
2021/03/07 11:12:20;;;;;;;13.87;8.60;;;6.40;99.90;;;;;;4988445;28;20254;-82
2021/03/07 11:14:47;;;;;;;11.60;9.03;;;6.40;99.90;;;;;;4988637;28;20239;-82
2021/03/07 11:17:13;;;;;;;13.20;9.50;;;6.50;99.90;;;;;;4988158;28;20219;-83
2021/03/07 11:19:40;;;;;;;13.17;9.63;;;6.60;99.90;;;;;;4988206;28;20612;-83
2021/03/07 11:22:06;;;;;;;14.00;9.73;;;6.60;99.90;;;;;;4986769;28;20234;-84
2021/03/07 11:24:33;;;;;;;14.90;9.90;;;6.60;99.90;;;;;;4967713;28;20235;-81
2021/03/07 11:26:59;;;;;;;14.37;9.93;;;6.60;99.90;;;;;;4979493;28;20928;-80
2021/03/07 11:29:26;;;;;;;12.63;9.97;;;6.70;99.90;;;;;;4986386;28;20208;-81
2021/03/07 11:31:52;;;;;;;11.40;9.10;;;6.70;99.90;;;;;;4990507;28;20214;-81
2021/03/07 11:34:18;;;;;;;11.90;9.13;;;6.60;99.90;;;;;;4990583;28;20224;-81
2021/03/07 11:36:45;;;;;;;11.97;9.40;;;6.60;99.90;;;;;;4977680;28;20263;-81
2021/03/07 11:39:12;;;;;;;12.40;9.57;;;6.60;99.90;;;;;;4970401;28;20205;-82
2021/03/07 11:41:39;;;;;;;12.30;9.47;;;6.60;99.90;;;;;;4987001;28;20211;-81
2021/03/07 11:44:05;;;;;;;12.43;9.13;;;6.60;99.90;;;;;;4990306;28;20223;-82
2021/03/07 11:46:32;;;;;;;12.10;9.23;;;6.70;99.90;;;;;;4987105;28;20203;-81
2021/03/07 11:48:58;;;;;;;12.27;9.87;;;6.60;99.90;;;;;;4979060;28;20229;-78
2021/03/07 11:51:24;;;;;;;10.93;8.63;;;6.50;99.90;;;;;;4966908;28;20215;-80
2021/03/07 11:53:52;;;;;;;13.73;9.60;;;6.50;99.90;;;;;;4967008;28;20291;-78
2021/03/07 11:56:18;;;;;;;11.17;8.80;;;6.50;99.90;;;;;;4966720;28;20223;-79
2021/03/07 11:58:44;;;;;;;11.13;8.37;;;6.50;99.90;;;;;;4965884;28;20212;-77
2021/03/07 12:01:11;;;;;;;12.77;9.27;;;6.60;99.90;;;;;;4970893;28;20204;-83
2021/03/07 12:03:37;;;;;;;11.83;9.43;;;6.60;99.90;;;;;;4969834;28;20231;-82
2021/03/07 12:06:04;;;;;;;11.43;8.63;;;6.60;99.90;;;;;;4989784;28;20235;-82
2021/03/07 12:08:30;;;;;;;12.57;8.70;;;6.60;99.90;;;;;;4990050;28;20211;-81
2021/03/07 12:10:57;;;;;;;12.80;10.10;;;6.60;99.90;;;;;;4990777;28;20212;-81
2021/03/07 12:13:24;;;;;;;14.97;10.47;;;6.60;99.90;;;;;;4989443;28;20266;-81
2021/03/07 12:15:50;;;;;;;15.07;10.93;;;6.60;99.90;;;;;;4987085;28;20236;-81
2021/03/07 12:18:16;;;;;;;12.77;10.43;;;6.50;99.90;;;;;;4969715;28;20224;-82
2021/03/07 12:20:42;;;;;;;14.80;10.23;;;6.40;99.90;;;;;;4966274;28;20212;-79
2021/03/07 12:23:09;;;;;;;12.93;10.57;;;6.50;99.90;;;;;;4967241;28;20213;-78
2021/03/07 12:25:36;;;;;;;14.73;11.30;;;6.50;99.90;;;;;;4967852;28;20204;-79
2021/03/07 12:28:03;;;;;;;15.87;11.13;;;6.50;99.90;;;;;;4978706;28;20211;-80
2021/03/07 12:30:30;;;;;;;15.07;10.87;;;6.50;99.90;;;;;;4985680;28;20204;-79
2021/03/07 12:32:56;;;;;;;12.53;9.93;;;6.40;99.90;;;;;;4987967;28;20200;-81
2021/03/07 12:35:22;;;;;;;12.90;10.67;;;6.30;99.90;;;;;;4988214;28;20231;-81
2021/03/07 12:37:49;;;;;;;14.47;11.43;;;6.30;99.90;;;;;;4988943;28;20208;-82
2021/03/07 12:40:15;;;;;;;14.87;10.80;;;6.40;99.90;;;;;;4986182;28;20208;-83
2021/03/07 12:42:41;;;;;;;14.40;10.23;;;6.40;99.90;;;;;;4985644;28;20199;-82
2021/03/07 12:45:10;;;;;;;14.53;10.80;;;6.40;99.90;;;;;;4985329;28;20200;-80
2021/03/07 12:47:37;;;;;;;18.37;12.27;;;6.40;99.90;;;;;;4968439;28;20204;-80
2021/03/07 12:50:04;;;;;;;16.60;12.70;;;6.60;99.90;;;;;;4988249;28;20231;-80
2021/03/07 12:52:30;;;;;;;16.43;12.00;;;6.70;99.90;;;;;;4987654;28;20208;-82
2021/03/07 12:54:57;;;;;;;17.77;13.83;;;6.80;99.90;;;;;;4986548;28;20743;-79
2021/03/07 12:57:23;;;;;;;17.77;13.37;;;6.80;99.90;;;;;;4986455;28;20219;-80
2021/03/07 12:59:49;;;;;;;20.40;14.83;;;6.80;99.90;;;;;;4987196;28;20200;-79
2021/03/07 13:02:16;;;;;;;22.10;13.87;;;7.00;99.90;;;;;;4986025;28;20227;-82